sensor_id;sensor_type;location;lat;lon;timestamp;temperature;humidity
75819;DHT22;64453;51.944;9.796;2024-01-15T00:02:14;3.70;86.40
75819;DHT22;64453;51.944;9.796;2024-01-15T00:04:42;3.20;89.00
75819;DHT22;64453;51.944;9.796;2024-01-15T00:07:09;3.70;88.90
75819;DHT22;64453;51.944;9.796;2024-01-15T00:09:36;4.20;88.10
75819;DHT22;64453;51.944;9.796;2024-01-15T00:12:04;4.20;85.80
75819;DHT22;64453;51.944;9.796;2024-01-15T00:14:31;3.70;85.10
75819;DHT22;64453;51.944;9.796;2024-01-15T00:16:58;4.00;88.20
75819;DHT22;64453;51.944;9.796;2024-01-15T00:19:25;4.30;88.70
75819;DHT22;64453;51.944;9.796;2024-01-15T00:21:54;4.20;88.20
75819;DHT22;64453;51.944;9.796;2024-01-15T00:24:21;4.00;86.60
75819;DHT22;64453;51.944;9.796;2024-01-15T00:26:48;3.60;86.80
75819;DHT22;64453;51.944;9.796;2024-01-15T00:29:15;4.00;88.10
75819;DHT22;64453;51.944;9.796;2024-01-15T00:31:42;3.80;88.80
75819;DHT22;64453;51.944;9.796;2024-01-15T00:34:09;4.20;87.00
75819;DHT22;64453;51.944;9.796;2024-01-15T00:36:36;3.90;85.40
75819;DHT22;64453;51.944;9.796;2024-01-15T00:39:04;4.00;88.60
75819;DHT22;64453;51.944;9.796;2024-01-15T00:41:31;3.90;86.60
75819;DHT22;64453;51.944;9.796;2024-01-15T00:43:58;3.80;88.30
75819;DHT22;64453;51.944;9.796;2024-01-15T00:46:25;3.40;87.90
75819;DHT22;64453;51.944;9.796;2024-01-15T00:48:51;3.70;88.30
75819;DHT22;64453;51.944;9.796;2024-01-15T00:51:18;3.40;87.60
75819;DHT22;64453;51.944;9.796;2024-01-15T00:53:45;3.50;88.90
75819;DHT22;64453;51.944;9.796;2024-01-15T00:56:13;3.50;88.20
75819;DHT22;64453;51.944;9.796;2024-01-15T00:58:40;3.70;86.60
75819;DHT22;64453;51.944;9.796;2024-01-15T01:01:07;3.40;87.90
75819;DHT22;64453;51.944;9.796;2024-01-15T01:03:34;3.90;88.80
75819;DHT22;64453;51.944;9.796;2024-01-15T01:06:00;3.90;85.00
75819;DHT22;64453;51.944;9.796;2024-01-15T01:08:27;4.20;85.20
75819;DHT22;64453;51.944;9.796;2024-01-15T01:10:55;3.90;84.00
75819;DHT22;64453;51.944;9.796;2024-01-15T01:13:24;3.90;85.90
75819;DHT22;64453;51.944;9.796;2024-01-15T01:15:51;3.60;84.40
75819;DHT22;64453;51.944;9.796;2024-01-15T01:18:18;3.90;84.60
75819;DHT22;64453;51.944;9.796;2024-01-15T01:20:44;3.90;83.50
75819;DHT22;64453;51.944;9.796;2024-01-15T01:23:11;4.30;82.30
75819;DHT22;64453;51.944;9.796;2024-01-15T01:25:38;4.00;82.10
75819;DHT22;64453;51.944;9.796;2024-01-15T01:28:05;3.90;80.10
75819;DHT22;64453;51.944;9.796;2024-01-15T01:30:33;3.80;79.80
75819;DHT22;64453;51.944;9.796;2024-01-15T01:33:00;3.90;79.20
75819;DHT22;64453;51.944;9.796;2024-01-15T01:35:27;3.60;81.00
75819;DHT22;64453;51.944;9.796;2024-01-15T01:37:54;4.00;79.50
75819;DHT22;64453;51.944;9.796;2024-01-15T01:40:21;4.00;79.00
75819;DHT22;64453;51.944;9.796;2024-01-15T01:42:48;3.80;79.60
75819;DHT22;64453;51.944;9.796;2024-01-15T01:45:15;3.80;80.20
75819;DHT22;64453;51.944;9.796;2024-01-15T01:47:43;3.90;81.80
75819;DHT22;64453;51.944;9.796;2024-01-15T01:50:10;3.80;81.70
75819;DHT22;64453;51.944;9.796;2024-01-15T01:52:38;3.40;84.00
75819;DHT22;64453;51.944;9.796;2024-01-15T01:55:06;3.50;83.20
75819;DHT22;64453;51.944;9.796;2024-01-15T01:57:34;3.50;83.90
75819;DHT22;64453;51.944;9.796;2024-01-15T02:00:02;3.30;82.80
75819;DHT22;64453;51.944;9.796;2024-01-15T02:02:31;3.50;83.00
75819;DHT22;64453;51.944;9.796;2024-01-15T02:04:59;3.20;83.20
75819;DHT22;64453;51.944;9.796;2024-01-15T02:07:26;3.90;82.30
75819;DHT22;64453;51.944;9.796;2024-01-15T02:09:53;3.60;80.90
75819;DHT22;64453;51.944;9.796;2024-01-15T02:12:20;3.80;82.30
75819;DHT22;64453;51.944;9.796;2024-01-15T02:14:47;4.00;79.60
75819;DHT22;64453;51.944;9.796;2024-01-15T02:17:13;3.50;80.70
75819;DHT22;64453;51.944;9.796;2024-01-15T02:19:40;3.70;80.80
75819;DHT22;64453;51.944;9.796;2024-01-15T02:22:08;3.50;80.80
75819;DHT22;64453;51.944;9.796;2024-01-15T02:24:36;3.70;81.20
75819;DHT22;64453;51.944;9.796;2024-01-15T02:27:04;3.90;80.30
75819;DHT22;64453;51.944;9.796;2024-01-15T02:29:31;3.40;79.80
75819;DHT22;64453;51.944;9.796;2024-01-15T02:31:57;4.30;79.60
75819;DHT22;64453;51.944;9.796;2024-01-15T02:34:24;4.60;78.80
75819;DHT22;64453;51.944;9.796;2024-01-15T02:36:51;4.10;77.70
75819;DHT22;64453;51.944;9.796;2024-01-15T02:39:18;3.70;78.20
75819;DHT22;64453;51.944;9.796;2024-01-15T02:41:52;3.70;79.90
75819;DHT22;64453;51.944;9.796;2024-01-15T02:44:21;4.00;79.60
75819;DHT22;64453;51.944;9.796;2024-01-15T02:46:48;4.00;79.10
75819;DHT22;64453;51.944;9.796;2024-01-15T02:49:15;3.90;78.90
75819;DHT22;64453;51.944;9.796;2024-01-15T02:51:42;3.90;78.90
75819;DHT22;64453;51.944;9.796;2024-01-15T02:54:09;3.70;79.80
75819;DHT22;64453;51.944;9.796;2024-01-15T02:56:35;4.00;79.90
75819;DHT22;64453;51.944;9.796;2024-01-15T02:59:04;4.20;77.90
75819;DHT22;64453;51.944;9.796;2024-01-15T03:01:30;3.90;76.70
75819;DHT22;64453;51.944;9.796;2024-01-15T03:03:57;4.20;77.50
75819;DHT22;64453;51.944;9.796;2024-01-15T03:06:24;4.00;78.20
75819;DHT22;64453;51.944;9.796;2024-01-15T03:08:51;4.10;77.60
75819;DHT22;64453;51.944;9.796;2024-01-15T03:11:18;4.60;77.50
75819;DHT22;64453;51.944;9.796;2024-01-15T03:13:44;3.80;76.90
75819;DHT22;64453;51.944;9.796;2024-01-15T03:16:13;3.60;80.10
75819;DHT22;64453;51.944;9.796;2024-01-15T03:18:39;3.60;80.00
75819;DHT22;64453;51.944;9.796;2024-01-15T03:21:06;3.40;79.30
75819;DHT22;64453;51.944;9.796;2024-01-15T03:23:33;3.90;79.50
75819;DHT22;64453;51.944;9.796;2024-01-15T03:26:00;4.00;78.00
75819;DHT22;64453;51.944;9.796;2024-01-15T03:28:27;4.10;77.90
75819;DHT22;64453;51.944;9.796;2024-01-15T03:30:55;4.20;77.20
75819;DHT22;64453;51.944;9.796;2024-01-15T03:33:24;4.40;77.10
75819;DHT22;64453;51.944;9.796;2024-01-15T03:35:51;3.90;77.70
75819;DHT22;64453;51.944;9.796;2024-01-15T03:38:17;3.80;79.60
75819;DHT22;64453;51.944;9.796;2024-01-15T03:40:44;4.10;79.60
75819;DHT22;64453;51.944;9.796;2024-01-15T03:43:12;3.70;79.60
75819;DHT22;64453;51.944;9.796;2024-01-15T03:45:39;3.80;80.60
75819;DHT22;64453;51.944;9.796;2024-01-15T03:48:06;3.90;80.00
75819;DHT22;64453;51.944;9.796;2024-01-15T03:50:34;4.30;80.10
75819;DHT22;64453;51.944;9.796;2024-01-15T03:53:01;3.80;78.90
75819;DHT22;64453;51.944;9.796;2024-01-15T03:55:27;4.00;79.80
75819;DHT22;64453;51.944;9.796;2024-01-15T03:57:54;3.90;81.20
75819;DHT22;64453;51.944;9.796;2024-01-15T04:00:21;3.70;81.20
75819;DHT22;64453;51.944;9.796;2024-01-15T04:02:48;3.80;81.80
75819;DHT22;64453;51.944;9.796;2024-01-15T04:05:15;3.70;79.50
75819;DHT22;64453;51.944;9.796;2024-01-15T04:07:43;3.70;82.30
75819;DHT22;64453;51.944;9.796;2024-01-15T04:10:10;3.40;82.00
75819;DHT22;64453;51.944;9.796;2024-01-15T04:12:37;3.80;81.80
75819;DHT22;64453;51.944;9.796;2024-01-15T04:15:04;3.90;80.50
75819;DHT22;64453;51.944;9.796;2024-01-15T04:17:31;4.10;79.00
75819;DHT22;64453;51.944;9.796;2024-01-15T04:19:58;3.60;80.60
75819;DHT22;64453;51.944;9.796;2024-01-15T04:22:26;3.70;81.80
75819;DHT22;64453;51.944;9.796;2024-01-15T04:24:55;3.90;81.60
75819;DHT22;64453;51.944;9.796;2024-01-15T04:27:21;3.90;82.00
75819;DHT22;64453;51.944;9.796;2024-01-15T04:29:48;4.00;82.30
75819;DHT22;64453;51.944;9.796;2024-01-15T04:32:15;4.00;81.80
75819;DHT22;64453;51.944;9.796;2024-01-15T04:34:42;4.10;81.10
75819;DHT22;64453;51.944;9.796;2024-01-15T04:37:09;4.10;81.80
75819;DHT22;64453;51.944;9.796;2024-01-15T04:39:37;4.20;81.80
75819;DHT22;64453;51.944;9.796;2024-01-15T04:42:05;3.80;82.40
75819;DHT22;64453;51.944;9.796;2024-01-15T04:44:32;4.00;81.60
75819;DHT22;64453;51.944;9.796;2024-01-15T04:46:59;4.30;81.70
75819;DHT22;64453;51.944;9.796;2024-01-15T04:49:25;4.30;81.70
75819;DHT22;64453;51.944;9.796;2024-01-15T04:51:54;3.90;84.30
75819;DHT22;64453;51.944;9.796;2024-01-15T04:54:21;4.00;83.60
75819;DHT22;64453;51.944;9.796;2024-01-15T04:56:48;4.10;83.90
75819;DHT22;64453;51.944;9.796;2024-01-15T04:59:16;4.00;83.30
75819;DHT22;64453;51.944;9.796;2024-01-15T05:01:43;3.70;83.90
75819;DHT22;64453;51.944;9.796;2024-01-15T05:04:10;3.90;85.40
75819;DHT22;64453;51.944;9.796;2024-01-15T05:06:36;3.90;84.60
75819;DHT22;64453;51.944;9.796;2024-01-15T05:09:03;4.20;83.50
75819;DHT22;64453;51.944;9.796;2024-01-15T05:11:30;4.20;83.00
75819;DHT22;64453;51.944;9.796;2024-01-15T05:13:57;3.60;83.30
75819;DHT22;64453;51.944;9.796;2024-01-15T05:16:25;4.00;84.00
75819;DHT22;64453;51.944;9.796;2024-01-15T05:18:52;3.90;83.70
75819;DHT22;64453;51.944;9.796;2024-01-15T05:21:19;3.90;84.60
75819;DHT22;64453;51.944;9.796;2024-01-15T05:23:45;3.70;85.00
75819;DHT22;64453;51.944;9.796;2024-01-15T05:26:12;3.70;85.40
75819;DHT22;64453;51.944;9.796;2024-01-15T05:28:40;4.00;86.00
75819;DHT22;64453;51.944;9.796;2024-01-15T05:31:08;3.70;85.00
75819;DHT22;64453;51.944;9.796;2024-01-15T05:33:37;3.30;86.00
75819;DHT22;64453;51.944;9.796;2024-01-15T05:36:05;3.80;85.10
75819;DHT22;64453;51.944;9.796;2024-01-15T05:38:32;3.70;85.70
75819;DHT22;64453;51.944;9.796;2024-01-15T05:40:59;3.80;85.30
75819;DHT22;64453;51.944;9.796;2024-01-15T05:43:26;4.00;84.90
75819;DHT22;64453;51.944;9.796;2024-01-15T05:45:53;3.90;83.90
75819;DHT22;64453;51.944;9.796;2024-01-15T05:48:19;3.80;84.60
75819;DHT22;64453;51.944;9.796;2024-01-15T05:50:47;3.50;85.50
75819;DHT22;64453;51.944;9.796;2024-01-15T05:53:14;3.90;85.80
75819;DHT22;64453;51.944;9.796;2024-01-15T05:55:41;4.00;84.60
75819;DHT22;64453;51.944;9.796;2024-01-15T05:58:08;3.70;85.30
75819;DHT22;64453;51.944;9.796;2024-01-15T06:00:38;3.90;85.50
75819;DHT22;64453;51.944;9.796;2024-01-15T06:03:05;4.10;84.80
75819;DHT22;64453;51.944;9.796;2024-01-15T06:05:32;4.40;84.00
75819;DHT22;64453;51.944;9.796;2024-01-15T06:08:00;4.20;82.60
75819;DHT22;64453;51.944;9.796;2024-01-15T06:10:27;3.90;82.30
75819;DHT22;64453;51.944;9.796;2024-01-15T06:12:54;4.20;82.70
75819;DHT22;64453;51.944;9.796;2024-01-15T06:15:21;4.10;83.60
75819;DHT22;64453;51.944;9.796;2024-01-15T06:17:47;3.50;82.80
75819;DHT22;64453;51.944;9.796;2024-01-15T06:20:14;3.50;84.70
75819;DHT22;64453;51.944;9.796;2024-01-15T06:22:41;3.80;84.50
75819;DHT22;64453;51.944;9.796;2024-01-15T06:25:09;3.70;85.20
75819;DHT22;64453;51.944;9.796;2024-01-15T06:27:36;3.70;85.80
75819;DHT22;64453;51.944;9.796;2024-01-15T06:30:04;3.70;85.90
75819;DHT22;64453;51.944;9.796;2024-01-15T06:32:32;3.60;88.30
75819;DHT22;64453;51.944;9.796;2024-01-15T06:34:58;3.70;89.60
75819;DHT22;64453;51.944;9.796;2024-01-15T06:37:25;3.90;88.50
75819;DHT22;64453;51.944;9.796;2024-01-15T06:39:52;3.60;86.30
75819;DHT22;64453;51.944;9.796;2024-01-15T06:42:20;3.70;86.80
75819;DHT22;64453;51.944;9.796;2024-01-15T06:44:48;3.50;88.90
75819;DHT22;64453;51.944;9.796;2024-01-15T06:47:14;3.60;90.00
75819;DHT22;64453;51.944;9.796;2024-01-15T06:49:43;3.60;87.60
75819;DHT22;64453;51.944;9.796;2024-01-15T06:52:10;3.80;86.00
75819;DHT22;64453;51.944;9.796;2024-01-15T06:54:38;3.70;85.50
75819;DHT22;64453;51.944;9.796;2024-01-15T06:57:05;3.80;86.10
75819;DHT22;64453;51.944;9.796;2024-01-15T06:59:34;3.80;86.20
75819;DHT22;64453;51.944;9.796;2024-01-15T07:02:01;3.90;85.80
75819;DHT22;64453;51.944;9.796;2024-01-15T07:04:28;3.90;84.20
75819;DHT22;64453;51.944;9.796;2024-01-15T07:06:55;4.10;84.80
75819;DHT22;64453;51.944;9.796;2024-01-15T07:09:22;3.90;85.10
75819;DHT22;64453;51.944;9.796;2024-01-15T07:11:49;3.40;86.60
75819;DHT22;64453;51.944;9.796;2024-01-15T07:14:17;3.80;88.20
75819;DHT22;64453;51.944;9.796;2024-01-15T07:16:45;3.80;89.10
75819;DHT22;64453;51.944;9.796;2024-01-15T07:19:12;4.00;86.90
75819;DHT22;64453;51.944;9.796;2024-01-15T07:21:38;3.50;86.50
75819;DHT22;64453;51.944;9.796;2024-01-15T07:24:08;4.40;86.30
75819;DHT22;64453;51.944;9.796;2024-01-15T07:26:35;4.00;85.70
75819;DHT22;64453;51.944;9.796;2024-01-15T07:29:02;3.70;95.00
75819;DHT22;64453;51.944;9.796;2024-01-15T07:31:29;3.10;96.50
75819;DHT22;64453;51.944;9.796;2024-01-15T07:33:58;3.50;97.60
75819;DHT22;64453;51.944;9.796;2024-01-15T07:36:25;3.50;95.80
75819;DHT22;64453;51.944;9.796;2024-01-15T07:38:52;3.50;96.10
75819;DHT22;64453;51.944;9.796;2024-01-15T07:41:19;3.70;95.40
75819;DHT22;64453;51.944;9.796;2024-01-15T07:43:46;3.40;95.60
75819;DHT22;64453;51.944;9.796;2024-01-15T07:46:12;3.80;97.50
75819;DHT22;64453;51.944;9.796;2024-01-15T07:48:39;3.50;92.30
75819;DHT22;64453;51.944;9.796;2024-01-15T07:51:08;3.70;94.60
75819;DHT22;64453;51.944;9.796;2024-01-15T07:53:34;3.80;94.50
75819;DHT22;64453;51.944;9.796;2024-01-15T07:56:01;4.30;95.90
75819;DHT22;64453;51.944;9.796;2024-01-15T07:58:28;4.10;95.60
75819;DHT22;64453;51.944;9.796;2024-01-15T08:00:55;4.10;92.70
75819;DHT22;64453;51.944;9.796;2024-01-15T08:03:22;4.50;94.80
75819;DHT22;64453;51.944;9.796;2024-01-15T08:05:49;4.20;90.00
75819;DHT22;64453;51.944;9.796;2024-01-15T08:08:19;4.40;93.50
75819;DHT22;64453;51.944;9.796;2024-01-15T08:10:46;4.10;92.10
75819;DHT22;64453;51.944;9.796;2024-01-15T08:13:13;4.40;94.20
75819;DHT22;64453;51.944;9.796;2024-01-15T08:15:40;4.10;92.20
75819;DHT22;64453;51.944;9.796;2024-01-15T08:18:07;4.10;92.90
75819;DHT22;64453;51.944;9.796;2024-01-15T08:20:34;4.30;93.40
75819;DHT22;64453;51.944;9.796;2024-01-15T08:23:01;4.30;92.80
75819;DHT22;64453;51.944;9.796;2024-01-15T08:25:29;4.40;93.70
75819;DHT22;64453;51.944;9.796;2024-01-15T08:27:56;4.40;90.30
75819;DHT22;64453;51.944;9.796;2024-01-15T08:30:24;4.10;90.40
75819;DHT22;64453;51.944;9.796;2024-01-15T08:32:53;4.00;92.40
75819;DHT22;64453;51.944;9.796;2024-01-15T08:35:20;3.60;90.80
75819;DHT22;64453;51.944;9.796;2024-01-15T08:37:48;3.70;92.00
75819;DHT22;64453;51.944;9.796;2024-01-15T08:40:15;3.80;91.10
75819;DHT22;64453;51.944;9.796;2024-01-15T08:42:44;4.00;91.00
75819;DHT22;64453;51.944;9.796;2024-01-15T08:45:12;4.30;90.70
75819;DHT22;64453;51.944;9.796;2024-01-15T08:47:38;4.10;89.00
75819;DHT22;64453;51.944;9.796;2024-01-15T08:50:07;4.00;89.60
75819;DHT22;64453;51.944;9.796;2024-01-15T08:52:35;3.90;88.70
75819;DHT22;64453;51.944;9.796;2024-01-15T08:55:03;3.90;86.60
75819;DHT22;64453;51.944;9.796;2024-01-15T08:57:32;4.10;87.50
75819;DHT22;64453;51.944;9.796;2024-01-15T09:00:00;3.70;86.60
75819;DHT22;64453;51.944;9.796;2024-01-15T09:02:29;4.30;86.50
75819;DHT22;64453;51.944;9.796;2024-01-15T09:04:56;4.50;84.90
75819;DHT22;64453;51.944;9.796;2024-01-15T09:07:22;4.30;82.80
75819;DHT22;64453;51.944;9.796;2024-01-15T09:09:50;4.40;82.70
75819;DHT22;64453;51.944;9.796;2024-01-15T09:12:17;4.50;81.80
75819;DHT22;64453;51.944;9.796;2024-01-15T09:14:46;4.70;81.80
75819;DHT22;64453;51.944;9.796;2024-01-15T09:17:14;4.50;81.90
75819;DHT22;64453;51.944;9.796;2024-01-15T09:19:41;4.10;81.20
75819;DHT22;64453;51.944;9.796;2024-01-15T09:22:08;4.10;83.40
75819;DHT22;64453;51.944;9.796;2024-01-15T09:24:35;4.30;83.00
75819;DHT22;64453;51.944;9.796;2024-01-15T09:27:02;4.30;82.10
75819;DHT22;64453;51.944;9.796;2024-01-15T09:29:29;4.30;82.90
75819;DHT22;64453;51.944;9.796;2024-01-15T09:31:57;4.50;81.30
75819;DHT22;64453;51.944;9.796;2024-01-15T09:34:25;4.50;79.90
75819;DHT22;64453;51.944;9.796;2024-01-15T09:36:52;4.10;81.00
75819;DHT22;64453;51.944;9.796;2024-01-15T09:39:19;4.00;83.10
75819;DHT22;64453;51.944;9.796;2024-01-15T09:41:47;3.90;83.60
75819;DHT22;64453;51.944;9.796;2024-01-15T09:44:16;4.40;82.50
75819;DHT22;64453;51.944;9.796;2024-01-15T09:46:43;3.70;82.00
75819;DHT22;64453;51.944;9.796;2024-01-15T09:49:10;3.70;83.00
75819;DHT22;64453;51.944;9.796;2024-01-15T09:51:39;4.00;81.60
75819;DHT22;64453;51.944;9.796;2024-01-15T09:54:06;4.30;82.40
75819;DHT22;64453;51.944;9.796;2024-01-15T09:56:34;4.40;81.20
75819;DHT22;64453;51.944;9.796;2024-01-15T09:59:01;4.20;81.20
75819;DHT22;64453;51.944;9.796;2024-01-15T10:01:31;4.40;81.20
75819;DHT22;64453;51.944;9.796;2024-01-15T10:03:58;4.40;81.30
75819;DHT22;64453;51.944;9.796;2024-01-15T10:06:27;4.40;80.00
75819;DHT22;64453;51.944;9.796;2024-01-15T10:08:56;4.50;80.80
75819;DHT22;64453;51.944;9.796;2024-01-15T10:11:25;4.60;80.70
75819;DHT22;64453;51.944;9.796;2024-01-15T10:13:52;4.00;81.50
75819;DHT22;64453;51.944;9.796;2024-01-15T10:16:20;3.80;82.00
75819;DHT22;64453;51.944;9.796;2024-01-15T10:18:48;3.90;83.70
75819;DHT22;64453;51.944;9.796;2024-01-15T10:21:15;3.80;83.10
75819;DHT22;64453;51.944;9.796;2024-01-15T10:23:42;4.00;83.60
75819;DHT22;64453;51.944;9.796;2024-01-15T10:26:11;4.10;83.90
75819;DHT22;64453;51.944;9.796;2024-01-15T10:28:38;4.20;84.60
75819;DHT22;64453;51.944;9.796;2024-01-15T10:31:05;4.60;82.10
75819;DHT22;64453;51.944;9.796;2024-01-15T10:33:32;4.50;81.80
75819;DHT22;64453;51.944;9.796;2024-01-15T10:36:00;4.10;82.00
75819;DHT22;64453;51.944;9.796;2024-01-15T10:38:27;4.30;82.30
75819;DHT22;64453;51.944;9.796;2024-01-15T10:40:55;4.60;81.40
75819;DHT22;64453;51.944;9.796;2024-01-15T10:43:23;4.50;80.80
75819;DHT22;64453;51.944;9.796;2024-01-15T10:45:51;4.00;80.30
75819;DHT22;64453;51.944;9.796;2024-01-15T10:48:19;4.50;81.20
75819;DHT22;64453;51.944;9.796;2024-01-15T10:50:47;4.20;81.90
75819;DHT22;64453;51.944;9.796;2024-01-15T10:53:15;4.30;81.80
75819;DHT22;64453;51.944;9.796;2024-01-15T10:55:43;4.30;80.10
75819;DHT22;64453;51.944;9.796;2024-01-15T10:58:10;4.30;80.80
75819;DHT22;64453;51.944;9.796;2024-01-15T11:00:38;4.00;82.90
75819;DHT22;64453;51.944;9.796;2024-01-15T11:03:06;3.90;83.40
75819;DHT22;64453;51.944;9.796;2024-01-15T11:05:33;4.30;81.60
75819;DHT22;64453;51.944;9.796;2024-01-15T11:08:01;4.00;81.40
75819;DHT22;64453;51.944;9.796;2024-01-15T11:10:42;4.20;81.70
75819;DHT22;64453;51.944;9.796;2024-01-15T11:13:14;4.10;80.10
75819;DHT22;64453;51.944;9.796;2024-01-15T11:16:02;4.10;80.30
75819;DHT22;64453;51.944;9.796;2024-01-15T11:18:31;4.20;77.80
75819;DHT22;64453;51.944;9.796;2024-01-15T11:21:20;4.20;78.20
75819;DHT22;64453;51.944;9.796;2024-01-15T11:23:49;4.30;76.90
75819;DHT22;64453;51.944;9.796;2024-01-15T11:26:35;4.10;77.30
75819;DHT22;64453;51.944;9.796;2024-01-15T11:29:04;4.20;77.80
75819;DHT22;64453;51.944;9.796;2024-01-15T11:31:58;4.40;78.00
75819;DHT22;64453;51.944;9.796;2024-01-15T11:34:58;3.90;77.00
75819;DHT22;64453;51.944;9.796;2024-01-15T11:37:28;4.00;76.90
75819;DHT22;64453;51.944;9.796;2024-01-15T11:39:56;4.20;78.40
75819;DHT22;64453;51.944;9.796;2024-01-15T11:42:29;3.80;78.00
75819;DHT22;64453;51.944;9.796;2024-01-15T11:44:56;3.80;78.90
75819;DHT22;64453;51.944;9.796;2024-01-15T11:47:59;4.10;80.30
75819;DHT22;64453;51.944;9.796;2024-01-15T11:50:35;4.50;78.50
75819;DHT22;64453;51.944;9.796;2024-01-15T11:53:17;4.10;78.30
75819;DHT22;64453;51.944;9.796;2024-01-15T11:55:51;3.70;78.70
75819;DHT22;64453;51.944;9.796;2024-01-15T11:58:18;4.10;78.90
75819;DHT22;64453;51.944;9.796;2024-01-15T12:00:47;4.20;77.10
75819;DHT22;64453;51.944;9.796;2024-01-15T12:03:16;4.60;75.90
75819;DHT22;64453;51.944;9.796;2024-01-15T12:05:43;4.30;77.00
75819;DHT22;64453;51.944;9.796;2024-01-15T12:08:10;4.20;77.40
75819;DHT22;64453;51.944;9.796;2024-01-15T12:10:37;3.70;77.60
75819;DHT22;64453;51.944;9.796;2024-01-15T12:13:10;3.90;77.10
75819;DHT22;64453;51.944;9.796;2024-01-15T12:15:39;4.20;75.50
75819;DHT22;64453;51.944;9.796;2024-01-15T12:18:08;3.80;74.40
75819;DHT22;64453;51.944;9.796;2024-01-15T12:20:37;4.40;75.50
75819;DHT22;64453;51.944;9.796;2024-01-15T12:23:04;4.40;74.60
75819;DHT22;64453;51.944;9.796;2024-01-15T12:25:32;4.00;77.20
75819;DHT22;64453;51.944;9.796;2024-01-15T12:28:00;4.10;75.80
75819;DHT22;64453;51.944;9.796;2024-01-15T12:30:28;4.30;74.90
75819;DHT22;64453;51.944;9.796;2024-01-15T12:32:57;4.20;73.90
75819;DHT22;64453;51.944;9.796;2024-01-15T12:35:24;4.70;73.70
75819;DHT22;64453;51.944;9.796;2024-01-15T12:37:55;4.50;74.90
75819;DHT22;64453;51.944;9.796;2024-01-15T12:40:23;4.10;73.70
75819;DHT22;64453;51.944;9.796;2024-01-15T12:42:51;3.90;76.90
75819;DHT22;64453;51.944;9.796;2024-01-15T12:45:17;4.20;76.00
75819;DHT22;64453;51.944;9.796;2024-01-15T12:47:46;3.90;79.30
75819;DHT22;64453;51.944;9.796;2024-01-15T12:50:13;4.20;77.80
75819;DHT22;64453;51.944;9.796;2024-01-15T12:52:40;4.50;76.50
75819;DHT22;64453;51.944;9.796;2024-01-15T12:55:09;4.60;73.90
75819;DHT22;64453;51.944;9.796;2024-01-15T12:57:37;4.60;72.20
75819;DHT22;64453;51.944;9.796;2024-01-15T13:00:05;4.20;76.50
75819;DHT22;64453;51.944;9.796;2024-01-15T13:02:37;4.60;74.20
75819;DHT22;64453;51.944;9.796;2024-01-15T13:05:06;4.70;73.40
75819;DHT22;64453;51.944;9.796;2024-01-15T13:07:34;4.40;74.50
75819;DHT22;64453;51.944;9.796;2024-01-15T13:09:59;4.90;73.20
75819;DHT22;64453;51.944;9.796;2024-01-15T13:12:28;4.70;71.40
75819;DHT22;64453;51.944;9.796;2024-01-15T13:14:54;4.60;73.20
75819;DHT22;64453;51.944;9.796;2024-01-15T13:17:21;4.20;74.40
75819;DHT22;64453;51.944;9.796;2024-01-15T13:19:48;4.60;73.90
75819;DHT22;64453;51.944;9.796;2024-01-15T13:22:15;4.90;71.90
75819;DHT22;64453;51.944;9.796;2024-01-15T13:24:42;4.40;72.80
75819;DHT22;64453;51.944;9.796;2024-01-15T13:27:09;4.40;74.50
75819;DHT22;64453;51.944;9.796;2024-01-15T13:29:37;4.30;73.20
75819;DHT22;64453;51.944;9.796;2024-01-15T13:32:04;4.30;73.70
75819;DHT22;64453;51.944;9.796;2024-01-15T13:34:32;4.60;73.70
75819;DHT22;64453;51.944;9.796;2024-01-15T13:36:59;4.60;73.00
75819;DHT22;64453;51.944;9.796;2024-01-15T13:39:26;4.20;74.60
75819;DHT22;64453;51.944;9.796;2024-01-15T13:41:53;4.30;74.90
75819;DHT22;64453;51.944;9.796;2024-01-15T13:44:19;4.60;74.00
75819;DHT22;64453;51.944;9.796;2024-01-15T13:46:48;4.70;73.90
75819;DHT22;64453;51.944;9.796;2024-01-15T13:49:15;4.40;75.30
75819;DHT22;64453;51.944;9.796;2024-01-15T13:51:41;4.50;73.60
75819;DHT22;64453;51.944;9.796;2024-01-15T13:54:08;5.00;73.40
75819;DHT22;64453;51.944;9.796;2024-01-15T13:56:35;4.20;73.20
75819;DHT22;64453;51.944;9.796;2024-01-15T13:59:02;4.60;74.60
75819;DHT22;64453;51.944;9.796;2024-01-15T14:01:31;4.50;74.60
75819;DHT22;64453;51.944;9.796;2024-01-15T14:04:00;4.40;75.70
75819;DHT22;64453;51.944;9.796;2024-01-15T14:06:27;4.00;75.50
75819;DHT22;64453;51.944;9.796;2024-01-15T14:08:54;4.20;75.70
75819;DHT22;64453;51.944;9.796;2024-01-15T14:11:20;4.60;74.20
75819;DHT22;64453;51.944;9.796;2024-01-15T14:13:48;4.60;73.70
75819;DHT22;64453;51.944;9.796;2024-01-15T14:16:15;4.50;72.70
75819;DHT22;64453;51.944;9.796;2024-01-15T14:18:42;4.30;75.10
75819;DHT22;64453;51.944;9.796;2024-01-15T14:21:10;4.10;74.20
75819;DHT22;64453;51.944;9.796;2024-01-15T14:23:37;4.10;76.30
75819;DHT22;64453;51.944;9.796;2024-01-15T14:26:04;3.90;77.20
75819;DHT22;64453;51.944;9.796;2024-01-15T14:28:31;4.00;77.60
75819;DHT22;64453;51.944;9.796;2024-01-15T14:30:58;4.00;76.90
75819;DHT22;64453;51.944;9.796;2024-01-15T14:33:26;4.30;76.20
75819;DHT22;64453;51.944;9.796;2024-01-15T14:35:52;4.70;74.80
75819;DHT22;64453;51.944;9.796;2024-01-15T14:38:21;4.50;74.10
75819;DHT22;64453;51.944;9.796;2024-01-15T14:40:48;4.30;75.50
75819;DHT22;64453;51.944;9.796;2024-01-15T14:43:15;4.20;75.50
75819;DHT22;64453;51.944;9.796;2024-01-15T14:45:42;4.50;75.90
75819;DHT22;64453;51.944;9.796;2024-01-15T14:48:10;4.50;75.40
75819;DHT22;64453;51.944;9.796;2024-01-15T14:50:38;4.40;74.10
75819;DHT22;64453;51.944;9.796;2024-01-15T14:53:06;4.00;74.40
75819;DHT22;64453;51.944;9.796;2024-01-15T14:55:34;4.10;75.80
75819;DHT22;64453;51.944;9.796;2024-01-15T14:58:01;4.60;75.50
75819;DHT22;64453;51.944;9.796;2024-01-15T15:00:29;4.70;75.80
75819;DHT22;64453;51.944;9.796;2024-01-15T15:02:55;4.80;74.80
75819;DHT22;64453;51.944;9.796;2024-01-15T15:05:23;4.60;75.80
75819;DHT22;64453;51.944;9.796;2024-01-15T15:07:51;4.30;79.10
75819;DHT22;64453;51.944;9.796;2024-01-15T15:10:18;4.50;78.20
75819;DHT22;64453;51.944;9.796;2024-01-15T15:12:46;4.30;80.60
75819;DHT22;64453;51.944;9.796;2024-01-15T15:15:13;3.60;85.40
75819;DHT22;64453;51.944;9.796;2024-01-15T15:17:42;3.90;88.40
75819;DHT22;64453;51.944;9.796;2024-01-15T15:20:10;4.30;84.10
75819;DHT22;64453;51.944;9.796;2024-01-15T15:22:37;4.10;83.30
75819;DHT22;64453;51.944;9.796;2024-01-15T15:25:05;4.00;82.40
75819;DHT22;64453;51.944;9.796;2024-01-15T15:27:34;4.10;83.30
75819;DHT22;64453;51.944;9.796;2024-01-15T15:30:03;4.50;81.90
75819;DHT22;64453;51.944;9.796;2024-01-15T15:32:31;4.60;79.90
75819;DHT22;64453;51.944;9.796;2024-01-15T15:34:58;4.10;81.50
75819;DHT22;64453;51.944;9.796;2024-01-15T15:37:25;3.90;82.10
75819;DHT22;64453;51.944;9.796;2024-01-15T15:39:52;4.20;82.90
75819;DHT22;64453;51.944;9.796;2024-01-15T15:42:19;4.70;81.50
75819;DHT22;64453;51.944;9.796;2024-01-15T15:44:46;4.80;79.50
75819;DHT22;64453;51.944;9.796;2024-01-15T15:47:16;4.20;80.70
75819;DHT22;64453;51.944;9.796;2024-01-15T15:49:43;4.10;82.80